Time;durP1;ratioP1;P1;durP2;ratioP2;P2;SDS_P1;SDS_P2;PMS_P1;PMS_P2;Temp;Humidity;BMP_temperature;BMP_pressure;BME280_temperature;BME280_humidity;BME280_pressure;Samples;Min_cycle;Max_cycle;Signal;HPM_P1;HPM_P2
2023/05/04 00:00:34;;;;;;;10.70;6.40;;;;;;;4.19;100.00;99165.69;2568169;28;20084;-86
2023/05/04 00:02:01;;;;;;;12.63;6.70;;;;;;;4.23;100.00;99166.59;2568468;28;20051;-86
2023/05/04 00:03:17;;;;;;;10.85;6.65;;;;;;;4.23;100.00;99170.06;2568201;28;20425;-86
2023/05/04 00:04:33;;;;;;;12.27;6.00;;;;;;;4.22;100.00;99168.31;2567959;28;20337;-85
2023/05/04 00:05:48;;;;;;;11.13;6.30;;;;;;;4.14;100.00;99169.09;2568343;28;20062;-85
2023/05/04 00:07:04;;;;;;;10.93;6.18;;;;;;;4.16;100.00;99163.09;2568389;28;20062;-85
2023/05/04 00:08:19;;;;;;;11.05;6.05;;;;;;;4.21;100.00;99164.00;2568118;28;20137;-86
2023/05/04 00:09:35;;;;;;;10.75;6.43;;;;;;;4.22;100.00;99165.72;2567964;28;20070;-85
2023/05/04 00:10:51;;;;;;;11.63;6.50;;;;;;;4.22;100.00;99159.69;2567775;28;20062;-86
2023/05/04 00:12:06;;;;;;;8.57;5.63;;;;;;;4.27;100.00;99159.75;2567974;28;20114;-86
2023/05/04 00:13:23;;;;;;;11.73;6.13;;;;;;;4.31;100.00;99166.69;2568322;28;20402;-85
2023/05/04 00:14:38;;;;;;;11.70;6.38;;;;;;;4.19;100.00;99168.28;2567923;28;20043;-85
2023/05/04 00:15:54;;;;;;;10.40;5.72;;;;;;;4.24;100.00;99168.34;2568295;28;20477;-86
2023/05/04 00:17:09;;;;;;;11.95;6.30;;;;;;;4.16;100.00;99164.78;2568018;28;20057;-86
2023/05/04 00:18:25;;;;;;;8.80;5.97;;;;;;;4.15;100.00;99163.06;2568120;28;20457;-86
2023/05/04 00:19:42;;;;;;;10.00;5.40;;;;;;;4.08;100.00;99162.13;2567938;28;20050;-86
2023/05/04 00:20:58;;;;;;;11.25;5.82;;;;;;;4.07;100.00;99169.06;2567900;28;20050;-86
2023/05/04 00:22:13;;;;;;;9.60;5.55;;;;;;;3.95;100.00;99162.00;2567875;28;20113;-86
2023/05/04 00:23:29;;;;;;;10.52;5.82;;;;;;;4.00;100.00;99162.06;2568245;28;20059;-86
2023/05/04 00:24:45;;;;;;;10.05;6.50;;;;;;;3.93;100.00;99157.69;2576970;28;20050;-86
2023/05/04 00:26:00;;;;;;;9.68;5.50;;;;;;;3.74;100.00;99160.06;2563114;28;20051;-85
2023/05/04 00:27:16;;;;;;;8.93;5.80;;;;;;;3.74;100.00;99160.06;2561397;28;20523;-86
2023/05/04 00:28:31;;;;;;;11.15;6.00;;;;;;;3.83;100.00;99161.88;2568176;28;20055;-86
2023/05/04 00:29:47;;;;;;;11.52;5.93;;;;;;;3.88;100.00;99155.03;2567943;28;20073;-86
2023/05/04 00:31:02;;;;;;;11.02;6.07;;;;;;;3.92;100.00;99159.38;2568183;28;20502;-86
2023/05/04 00:32:18;;;;;;;9.88;6.45;;;;;;;3.95;100.00;99163.75;2567912;28;20051;-87
2023/05/04 00:33:34;;;;;;;11.15;6.63;;;;;;;3.85;100.00;99164.50;2568205;28;20105;-86
2023/05/04 00:34:49;;;;;;;10.02;5.97;;;;;;;3.85;100.00;99165.38;2567713;28;20067;-86
2023/05/04 00:36:06;;;;;;;10.38;5.80;;;;;;;3.83;100.00;99158.44;2568192;28;20059;-86
2023/05/04 00:37:21;;;;;;;10.38;5.97;;;;;;;3.81;100.00;99148.03;2567712;28;20521;-86
2023/05/04 00:38:48;;;;;;;9.15;6.18;;;;;;;3.73;100.00;99154.88;2568186;28;20055;-86
2023/05/04 00:40:04;;;;;;;11.40;6.22;;;;;;;3.72;100.00;99150.53;2568906;28;20094;-86
2023/05/04 00:41:20;;;;;;;10.93;5.80;;;;;;;3.66;100.00;99153.94;2570503;28;20051;-86
2023/05/04 00:42:35;;;;;;;9.13;6.07;;;;;;;3.72;100.00;99154.00;2569812;28;20061;-86
2023/05/04 00:43:51;;;;;;;10.15;5.47;;;;;;;3.65;100.00;99152.19;2570300;28;20426;-86
2023/05/04 00:45:07;;;;;;;8.00;5.30;;;;;;;3.62;100.00;99149.53;2569665;28;20055;-86
2023/05/04 00:46:22;;;;;;;9.00;5.20;;;;;;;3.65;100.00;99147.88;2569826;28;20490;-86
2023/05/04 00:47:39;;;;;;;8.43;5.22;;;;;;;3.72;100.00;99151.41;2569939;28;20133;-86
2023/05/04 00:48:55;;;;;;;8.75;5.93;;;;;;;3.72;100.00;99153.13;2569755;28;20130;-86
2023/05/04 00:50:11;;;;;;;7.32;5.20;;;;;;;3.62;100.00;99141.78;2568413;28;20059;-86
2023/05/04 00:51:27;;;;;;;8.55;5.55;;;;;;;3.61;100.00;99147.81;2569047;28;20165;-86
2023/05/04 00:52:45;;;;;;;9.75;5.70;;;;;;;3.28;100.00;99144.81;2569668;28;20054;-86
2023/05/04 00:54:01;;;;;;;9.93;5.32;;;;;;;3.48;100.00;99145.06;2569875;28;20054;-86
2023/05/04 00:55:17;;;;;;;9.88;6.05;;;;;;;3.57;100.00;99148.63;2569762;28;20647;-86
2023/05/04 00:56:39;;;;;;;9.60;6.20;;;;;;;3.63;100.00;99144.41;2569608;28;20054;-86
2023/05/04 00:57:55;;;;;;;11.18;5.38;;;;;;;3.35;100.00;99149.25;2570211;28;20053;-86
2023/05/04 00:59:12;;;;;;;9.48;5.47;;;;;;;3.18;100.00;99143.84;2569797;28;20090;-86
2023/05/04 01:00:28;;;;;;;10.20;5.57;;;;;;;3.27;100.00;99145.69;2569747;28;20387;-86
2023/05/04 01:01:43;;;;;;;10.75;6.50;;;;;;;3.41;100.00;99145.88;2569697;28;20059;-86
2023/05/04 01:02:59;;;;;;;13.93;6.68;;;;;;;3.50;100.00;99150.28;2569702;28;20063;-87
2023/05/04 01:04:15;;;;;;;12.30;6.35;;;;;;;3.57;100.00;99148.63;2569556;28;20406;-86
2023/05/04 01:05:37;;;;;;;11.05;6.38;;;;;;;3.42;100.00;99149.31;2569779;28;20058;-86
2023/05/04 01:07:08;;;;;;;12.32;6.00;;;;;;;3.11;100.00;99147.22;2569572;28;20533;-86
2023/05/04 01:08:35;;;;;;;11.88;6.07;;;;;;;3.09;100.00;99151.50;2569563;28;20063;-86
2023/05/04 01:10:00;;;;;;;13.35;5.78;;;;;;;2.99;100.00;99147.88;2569535;28;20050;-86
2023/05/04 01:11:35;;;;;;;9.68;5.45;;;;;;;3.05;100.00;99152.28;2569709;28;20096;-87
2023/05/04 01:12:59;;;;;;;12.80;5.78;;;;;;;3.00;100.00;99149.63;2569608;28;20568;-86
2023/05/04 01:14:19;;;;;;;10.25;5.90;;;;;;;3.05;100.00;99139.34;2569444;28;20503;-86
2023/05/04 01:15:35;;;;;;;11.02;5.88;;;;;;;3.07;100.00;99143.72;2569759;28;20050;-86
2023/05/04 01:16:57;;;;;;;12.05;6.05;;;;;;;3.27;100.00;99150.84;2569255;28;20146;-86
2023/05/04 01:18:13;;;;;;;10.90;6.35;;;;;;;3.05;100.00;99145.41;2569465;28;20059;-86
2023/05/04 01:19:28;;;;;;;11.50;6.18;;;;;;;3.18;100.00;99146.44;2569504;28;20129;-85
2023/05/04 01:20:44;;;;;;;9.75;6.20;;;;;;;3.22;100.00;99147.34;2569819;28;20536;-86
2023/05/04 01:22:00;;;;;;;11.63;5.90;;;;;;;3.33;100.00;99143.19;2569524;28;20073;-85
2023/05/04 01:23:15;;;;;;;9.85;5.55;;;;;;;3.39;100.00;99139.81;2569696;28;20103;-86
2023/05/04 01:24:31;;;;;;;10.98;6.15;;;;;;;3.37;100.00;99144.09;2569595;28;20120;-86
2023/05/04 01:26:05;;;;;;;12.18;5.85;;;;;;;3.16;100.00;99145.53;2569589;28;20070;-85
2023/05/04 01:28:01;;;;;;;11.00;6.05;;;;;;;3.19;100.00;99145.56;2569577;28;20063;-85
2023/05/04 01:29:20;;;;;;;10.63;6.15;;;;;;;3.23;100.00;99149.97;2568781;28;20522;-86
2023/05/04 01:30:39;;;;;;;8.15;5.35;;;;;;;3.29;100.00;99153.47;2553166;29;20541;-86
2023/05/04 01:31:55;;;;;;;11.23;6.05;;;;;;;3.28;100.00;99150.00;2561098;28;20055;-86
2023/05/04 01:33:11;;;;;;;10.15;5.55;;;;;;;3.28;100.00;99149.16;2569435;28;20059;-85
2023/05/04 01:34:27;;;;;;;8.77;5.45;;;;;;;3.21;100.00;99145.59;2569498;28;20505;-85
2023/05/04 01:35:43;;;;;;;10.82;5.70;;;;;;;3.18;100.00;99149.00;2569457;28;20075;-86
2023/05/04 01:36:59;;;;;;;8.70;5.75;;;;;;;3.28;100.00;99146.56;2569404;28;20145;-85
2023/05/04 01:38:15;;;;;;;10.10;5.40;;;;;;;3.27;100.00;99150.84;2569561;28;20065;-86
2023/05/04 01:39:30;;;;;;;8.60;5.53;;;;;;;3.08;100.00;99153.22;2569699;28;20055;-86
2023/05/04 01:40:46;;;;;;;12.18;5.68;;;;;;;3.05;100.00;99152.28;2569311;28;20062;-86
2023/05/04 01:42:01;;;;;;;9.63;5.88;;;;;;;3.10;100.00;99158.41;2569723;28;20059;-86
2023/05/04 01:43:17;;;;;;;11.20;5.93;;;;;;;3.07;100.00;99148.00;2569353;28;20055;-86
2023/05/04 01:44:33;;;;;;;8.65;5.53;;;;;;;3.15;100.00;99151.56;2569577;28;20071;-86
2023/05/04 01:45:48;;;;;;;10.35;5.40;;;;;;;3.13;100.00;99142.91;2569488;28;20050;-86
2023/05/04 01:47:04;;;;;;;11.82;5.97;;;;;;;2.98;100.00;99151.31;2569517;28;20082;-86
2023/05/04 01:48:19;;;;;;;9.82;5.07;;;;;;;2.93;100.00;99151.28;2569038;28;20524;-86
2023/05/04 01:49:35;;;;;;;10.02;5.78;;;;;;;2.99;100.00;99150.47;2569789;28;20055;-86
2023/05/04 01:50:50;;;;;;;7.20;5.47;;;;;;;3.00;100.00;99157.38;2568748;28;20114;-86
2023/05/04 01:52:06;;;;;;;9.05;5.65;;;;;;;2.95;100.00;99153.88;2578071;28;20081;-86
2023/05/04 01:53:21;;;;;;;9.88;5.60;;;;;;;2.97;100.00;99157.34;2574945;28;20054;-86
2023/05/04 01:54:37;;;;;;;8.05;5.25;;;;;;;2.99;100.00;99154.78;2569141;28;20461;-87
2023/05/04 01:55:53;;;;;;;8.90;4.93;;;;;;;2.97;100.00;99155.66;2569593;28;20050;-85
2023/05/04 01:57:08;;;;;;;8.82;5.03;;;;;;;2.97;100.00;99162.53;2568703;28;20662;-87
2023/05/04 01:58:24;;;;;;;10.55;5.68;;;;;;;2.91;100.00;99159.88;2578679;28;20050;-86
2023/05/04 01:59:40;;;;;;;9.05;5.15;;;;;;;2.90;100.00;99155.53;2574853;28;20071;-86
2023/05/04 02:00:58;;;;;;;7.97;5.20;;;;;;;2.93;100.00;99156.47;2569570;28;20050;-86
2023/05/04 02:02:13;;;;;;;10.05;5.72;;;;;;;2.90;100.00;99153.81;2569121;28;20059;-86
2023/05/04 02:03:30;;;;;;;8.25;5.20;;;;;;;2.87;100.00;99156.34;2569514;28;20970;-86
2023/05/04 02:04:45;;;;;;;8.65;5.10;;;;;;;2.58;100.00;99154.19;2569117;28;20055;-85
2023/05/04 02:06:01;;;;;;;7.38;5.05;;;;;;;2.58;100.00;99155.91;2567009;28;20061;-86
2023/05/04 02:07:17;;;;;;;10.10;5.60;;;;;;;2.70;100.00;99150.91;2568999;28;20059;-86
2023/05/04 02:08:32;;;;;;;9.25;5.18;;;;;;;2.74;100.00;99154.44;2569701;28;20055;-86
2023/05/04 02:09:48;;;;;;;9.27;5.55;;;;;;;2.79;100.00;99157.94;2569262;28;20069;-85
2023/05/04 02:11:03;;;;;;;11.02;5.40;;;;;;;2.78;100.00;99157.09;2569412;28;20073;-85
2023/05/04 02:12:19;;;;;;;9.07;5.00;;;;;;;2.57;100.00;99155.03;2568906;28;20644;-86
2023/05/04 02:13:35;;;;;;;8.20;5.50;;;;;;;2.62;100.00;99153.38;2569514;28;20399;-86
2023/05/04 02:14:51;;;;;;;9.50;5.30;;;;;;;2.62;100.00;99160.28;2569333;28;20086;-86
2023/05/04 02:16:06;;;;;;;12.18;5.65;;;;;;;2.54;100.00;99155.84;2569312;28;20482;-86
2023/05/04 02:17:22;;;;;;;10.60;5.40;;;;;;;2.36;100.00;99165.91;2568878;28;20047;-86
2023/05/04 02:18:38;;;;;;;9.02;5.28;;;;;;;2.35;100.00;99164.16;2569202;28;20050;-86
2023/05/04 02:19:53;;;;;;;9.55;5.57;;;;;;;2.23;100.00;99157.94;2558622;29;20475;-86
2023/05/04 02:21:09;;;;;;;10.00;5.38;;;;;;;2.05;100.00;99153.31;2562774;28;20066;-85
2023/05/04 02:22:25;;;;;;;9.70;5.60;;;;;;;2.26;100.00;99154.53;2569035;28;20453;-86
2023/05/04 02:23:41;;;;;;;9.52;5.85;;;;;;;2.31;100.00;99155.47;2569345;28;20050;-85
2023/05/04 02:24:56;;;;;;;9.27;5.10;;;;;;;2.38;100.00;99157.34;2568929;28;20105;-85
2023/05/04 02:26:12;;;;;;;9.50;5.35;;;;;;;2.28;100.00;99158.03;2569010;28;20077;-85
2023/05/04 02:27:28;;;;;;;8.35;5.22;;;;;;;2.30;100.00;99155.44;2569384;28;20058;-85
2023/05/04 02:28:43;;;;;;;10.02;5.60;;;;;;;2.12;100.00;99154.28;2578067;28;21422;-86
2023/05/04 02:29:59;;;;;;;9.15;5.75;;;;;;;2.16;100.00;99155.22;2574780;28;20055;-85
2023/05/04 02:31:15;;;;;;;10.48;6.28;;;;;;;2.19;100.00;99153.56;2568814;28;20054;-85
2023/05/04 02:32:30;;;;;;;10.40;6.30;;;;;;;2.36;100.00;99146.09;2569022;28;20105;-85
2023/05/04 02:33:46;;;;;;;12.63;6.30;;;;;;;2.35;100.00;99148.66;2569135;28;20063;-85
2023/05/04 02:35:02;;;;;;;8.25;5.72;;;;;;;2.24;100.00;99153.66;2569058;28;20066;-85
2023/05/04 02:36:17;;;;;;;9.05;5.95;;;;;;;2.31;100.00;99152.91;2569007;28;20054;-85
2023/05/04 02:37:33;;;;;;;10.65;5.82;;;;;;;2.44;100.00;99148.78;2569127;28;20425;-85
2023/05/04 02:38:50;;;;;;;8.75;6.00;;;;;;;2.32;100.00;99146.88;2568978;28;20062;-86
2023/05/04 02:40:06;;;;;;;11.70;5.70;;;;;;;2.35;100.00;99152.09;2569061;28;20059;-86
2023/05/04 02:41:22;;;;;;;10.20;6.35;;;;;;;2.42;100.00;99149.63;2569178;28;20086;-86
2023/05/04 02:42:37;;;;;;;12.80;6.55;;;;;;;2.47;100.00;99154.03;2569185;28;20051;-85
2023/05/04 02:43:53;;;;;;;9.43;6.18;;;;;;;2.50;100.00;99145.44;2568852;28;20050;-86
2023/05/04 02:45:09;;;;;;;12.18;5.80;;;;;;;2.59;100.00;99144.75;2569026;28;20494;-86
2023/05/04 02:46:25;;;;;;;13.93;6.38;;;;;;;2.61;100.00;99148.22;2568747;28;20505;-86
2023/05/04 02:47:41;;;;;;;9.02;5.60;;;;;;;2.67;100.00;99154.34;2569345;28;20414;-85
2023/05/04 02:48:56;;;;;;;9.50;6.00;;;;;;;2.70;100.00;99153.50;2568716;28;20142;-86
2023/05/04 02:50:12;;;;;;;8.50;5.70;;;;;;;2.72;100.00;99153.53;2569573;28;20121;-86
2023/05/04 02:51:27;;;;;;;9.82;5.90;;;;;;;2.56;100.00;99150.72;2568765;28;20051;-85
2023/05/04 02:52:43;;;;;;;9.40;5.97;;;;;;;2.62;100.00;99148.22;2558226;29;20055;-86
2023/05/04 02:53:58;;;;;;;11.05;5.53;;;;;;;2.57;100.00;99152.47;2562324;28;20073;-85
2023/05/04 02:55:14;;;;;;;9.52;5.15;;;;;;;2.61;100.00;99154.25;2568834;28;20054;-85
2023/05/04 02:56:30;;;;;;;9.55;5.38;;;;;;;2.62;100.00;99153.38;2568664;28;20059;-86
2023/05/04 02:57:46;;;;;;;9.45;5.40;;;;;;;2.66;100.00;99155.19;2568633;28;20061;-85
2023/05/04 02:59:01;;;;;;;8.90;5.63;;;;;;;2.58;100.00;99154.19;2552836;29;20055;-86
2023/05/04 03:00:17;;;;;;;9.93;5.22;;;;;;;2.62;100.00;99152.53;2558799;28;20093;-86
2023/05/04 03:01:32;;;;;;;12.82;5.70;;;;;;;2.62;100.00;99143.06;2569130;28;20487;-86
2023/05/04 03:02:48;;;;;;;8.60;5.40;;;;;;;2.63;100.00;99147.38;2568459;28;20050;-86
2023/05/04 03:04:05;;;;;;;12.15;5.72;;;;;;;2.68;100.00;99150.03;2578752;28;20054;-86
2023/05/04 03:05:21;;;;;;;9.80;6.10;;;;;;;2.75;100.00;99151.88;2573783;28;20066;-86
2023/05/04 03:06:36;;;;;;;8.35;5.35;;;;;;;2.64;100.00;99146.53;2568754;28;20137;-85
2023/05/04 03:07:52;;;;;;;11.55;5.15;;;;;;;2.60;100.00;99154.22;2568685;28;20051;-86
2023/05/04 03:09:08;;;;;;;9.65;5.65;;;;;;;2.58;100.00;99150.72;2569300;28;20086;-86
2023/05/04 03:10:25;;;;;;;9.07;5.95;;;;;;;2.51;100.00;99152.34;2568411;28;20089;-86
2023/05/04 03:11:41;;;;;;;8.15;5.32;;;;;;;2.39;100.00;99147.84;2569199;28;20616;-86
2023/05/04 03:12:56;;;;;;;10.82;5.82;;;;;;;2.26;100.00;99157.13;2557657;29;20078;-86
2023/05/04 03:14:12;;;;;;;11.82;6.13;;;;;;;2.22;100.00;99150.16;2562250;28;20047;-86
2023/05/04 03:15:27;;;;;;;9.45;5.70;;;;;;;2.24;100.00;99161.41;2568571;28;20189;-86
2023/05/04 03:16:43;;;;;;;9.70;5.72;;;;;;;2.24;100.00;99146.75;2568656;28;20049;-86
2023/05/04 03:17:58;;;;;;;11.88;5.63;;;;;;;2.20;100.00;99151.84;2568552;28;20601;-86
2023/05/04 03:19:17;;;;;;;8.63;5.50;;;;;;;2.17;100.00;99150.09;2568459;28;20281;-86
2023/05/04 03:20:33;;;;;;;8.88;5.60;;;;;;;2.16;100.00;99147.47;2565737;28;20303;-86
2023/05/04 03:21:49;;;;;;;7.78;5.63;;;;;;;2.11;100.00;99148.28;2568876;28;20141;-86
2023/05/04 03:23:04;;;;;;;10.13;5.20;;;;;;;2.16;100.00;99148.31;2568478;28;20588;-86
2023/05/04 03:24:20;;;;;;;8.20;5.53;;;;;;;2.14;100.00;99146.59;2568404;28;20058;-86
2023/05/04 03:25:36;;;;;;;10.10;5.93;;;;;;;2.07;100.00;99151.63;2568293;28;20054;-86
2023/05/04 03:26:52;;;;;;;8.95;5.32;;;;;;;2.05;100.00;99147.28;2568504;28;20418;-86
2023/05/04 03:28:07;;;;;;;8.88;5.57;;;;;;;1.95;100.00;99146.22;2568154;28;20458;-86
2023/05/04 03:29:23;;;;;;;10.73;5.97;;;;;;;2.02;100.00;99145.50;2568833;28;20054;-86
2023/05/04 03:30:38;;;;;;;9.00;5.60;;;;;;;1.99;100.00;99155.78;2567818;28;20141;-85
2023/05/04 03:31:54;;;;;;;8.85;6.03;;;;;;;1.99;100.00;99155.78;2567917;28;20059;-86
2023/05/04 03:33:09;;;;;;;10.98;6.00;;;;;;;2.07;100.00;99161.94;2568026;28;20105;-86
2023/05/04 03:34:25;;;;;;;11.18;6.25;;;;;;;2.13;100.00;99156.03;2567943;28;20392;-86
2023/05/04 03:35:40;;;;;;;9.63;5.75;;;;;;;2.16;100.00;99153.50;2568266;28;20061;-86
2023/05/04 03:36:56;;;;;;;10.27;5.82;;;;;;;2.16;100.00;99156.06;2557413;29;20094;-86
2023/05/04 03:38:12;;;;;;;9.63;5.20;;;;;;;2.17;100.00;99157.84;2562113;28;20059;-86
2023/05/04 03:39:27;;;;;;;13.38;6.05;;;;;;;2.11;100.00;99161.19;2568097;28;20054;-86
2023/05/04 03:40:43;;;;;;;7.80;5.38;;;;;;;2.08;100.00;99160.25;2568606;28;20062;-86
2023/05/04 03:42:00;;;;;;;11.88;5.68;;;;;;;1.88;100.00;99159.88;2568098;28;20936;-86
2023/05/04 03:43:15;;;;;;;9.38;5.78;;;;;;;2.00;100.00;99154.94;2567510;28;20060;-86
2023/05/04 03:44:31;;;;;;;10.82;5.82;;;;;;;2.10;100.00;99155.97;2567336;28;20098;-86
2023/05/04 03:45:46;;;;;;;8.63;5.18;;;;;;;2.21;100.00;99161.31;2568528;28;20066;-86
2023/05/04 03:47:02;;;;;;;8.13;5.55;;;;;;;2.25;100.00;99156.25;2567878;28;20055;-87
2023/05/04 03:48:17;;;;;;;12.30;5.57;;;;;;;2.32;100.00;99158.94;2568332;28;20050;-86
2023/05/04 03:49:34;;;;;;;8.07;5.30;;;;;;;2.38;100.00;99156.47;2567849;28;20141;-86
2023/05/04 03:50:49;;;;;;;9.80;5.75;;;;;;;2.39;100.00;99163.38;2568246;28;20055;-86
2023/05/04 03:52:05;;;;;;;9.40;5.40;;;;;;;2.43;100.00;99169.47;2568035;28;20074;-85
2023/05/04 03:53:21;;;;;;;8.10;5.10;;;;;;;2.47;100.00;99166.06;2567958;28;20085;-86
2023/05/04 03:54:36;;;;;;;9.32;5.10;;;;;;;2.49;100.00;99165.25;2567998;28;20051;-87
2023/05/04 03:55:52;;;;;;;8.98;5.05;;;;;;;2.51;100.00;99173.91;2568063;28;20073;-86
2023/05/04 03:57:08;;;;;;;8.48;6.00;;;;;;;2.50;100.00;99166.13;2567960;28;20070;-87
2023/05/04 03:58:23;;;;;;;10.63;5.50;;;;;;;2.50;100.00;99163.53;2568213;28;20058;-87
2023/05/04 03:59:39;;;;;;;8.65;5.70;;;;;;;2.49;100.00;99165.25;2568303;28;20396;-88
2023/05/04 04:00:55;;;;;;;10.00;5.53;;;;;;;2.36;100.00;99166.75;2568260;28;20582;-87
2023/05/04 04:02:11;;;;;;;9.88;5.53;;;;;;;2.47;100.00;99166.06;2567592;28;20054;-87
2023/05/04 04:03:27;;;;;;;9.75;5.45;;;;;;;2.43;100.00;99162.56;2567847;28;20050;-87
2023/05/04 04:04:43;;;;;;;10.00;4.95;;;;;;;2.21;100.00;99161.31;2568195;28;20086;-86
2023/05/04 04:05:58;;;;;;;9.18;6.20;;;;;;;2.18;100.00;99166.44;2567933;28;20528;-85
2023/05/04 04:07:14;;;;;;;9.60;5.95;;;;;;;2.18;100.00;99167.34;2567837;28;20117;-87
2023/05/04 04:08:30;;;;;;;15.68;5.70;;;;;;;2.29;100.00;99162.34;2567941;28;20657;-87
2023/05/04 04:09:45;;;;;;;10.80;5.15;;;;;;;2.34;100.00;99163.28;2568213;28;20059;-87
2023/05/04 04:11:01;;;;;;;10.73;5.97;;;;;;;2.42;100.00;99163.41;2567507;28;20054;-86
2023/05/04 04:12:19;;;;;;;12.35;5.78;;;;;;;2.44;100.00;99166.03;2567485;28;20058;-86
2023/05/04 04:13:34;;;;;;;9.10;5.68;;;;;;;2.39;100.00;99161.66;2567727;28;20098;-86
2023/05/04 04:14:52;;;;;;;8.52;5.20;;;;;;;2.45;100.00;99163.47;2567745;28;20545;-86
2023/05/04 04:16:08;;;;;;;9.98;5.93;;;;;;;2.47;100.00;99163.50;2568185;28;20251;-86
2023/05/04 04:17:24;;;;;;;9.13;6.00;;;;;;;2.48;100.00;99167.81;2568020;28;20083;-86
2023/05/04 04:18:39;;;;;;;10.10;5.90;;;;;;;2.49;100.00;99166.97;2566915;28;20055;-86
2023/05/04 04:19:55;;;;;;;10.23;6.20;;;;;;;2.44;100.00;99176.38;2567304;28;20059;-86
2023/05/04 04:21:11;;;;;;;10.25;6.07;;;;;;;2.35;100.00;99169.34;2564265;28;20050;-86
2023/05/04 04:22:26;;;;;;;10.82;6.30;;;;;;;2.23;100.00;99165.69;2568257;28;20054;-84
2023/05/04 04:23:42;;;;;;;9.60;5.93;;;;;;;2.40;100.00;99159.94;2567347;28;20129;-87
2023/05/04 04:24:57;;;;;;;13.05;6.40;;;;;;;2.38;100.00;99177.13;2567903;28;20058;-84
2023/05/04 04:26:14;;;;;;;11.05;6.22;;;;;;;2.25;100.00;99169.16;2556731;29;20051;-86
2023/05/04 04:27:30;;;;;;;10.05;5.93;;;;;;;2.22;100.00;99174.28;2561754;28;20551;-85
2023/05/04 04:28:49;;;;;;;11.27;5.78;;;;;;;2.30;100.00;99174.41;2567903;28;20062;-86
2023/05/04 04:30:05;;;;;;;10.82;6.28;;;;;;;2.49;100.00;99172.13;2568307;28;20145;-86
2023/05/04 04:31:21;;;;;;;10.05;5.40;;;;;;;2.54;100.00;99173.09;2567832;28;20051;-86
2023/05/04 04:32:36;;;;;;;10.05;6.07;;;;;;;2.43;100.00;99188.41;2568314;28;20061;-86
2023/05/04 04:33:51;;;;;;;12.88;6.85;;;;;;;2.57;100.00;99173.13;2567922;28;20447;-85
2023/05/04 04:35:08;;;;;;;11.07;6.50;;;;;;;2.59;100.00;99174.03;2568216;28;20414;-85
2023/05/04 04:36:23;;;;;;;11.45;5.97;;;;;;;2.58;100.00;99172.28;2567515;28;20047;-85
2023/05/04 04:37:39;;;;;;;10.93;6.53;;;;;;;2.62;100.00;99168.91;2567992;28;20058;-86
2023/05/04 04:38:55;;;;;;;13.00;6.63;;;;;;;2.58;100.00;99174.88;2567856;28;20066;-85
2023/05/04 04:40:11;;;;;;;10.05;6.03;;;;;;;2.74;100.00;99169.94;2567918;28;20058;-85
2023/05/04 04:41:27;;;;;;;12.23;6.57;;;;;;;2.83;100.00;99175.28;2568151;28;20086;-84
2023/05/04 04:42:43;;;;;;;14.43;6.35;;;;;;;2.82;100.00;99171.81;2567618;28;20081;-84
2023/05/04 04:43:58;;;;;;;13.05;6.45;;;;;;;2.88;100.00;99168.44;2568027;28;20066;-86
2023/05/04 04:45:14;;;;;;;12.15;6.85;;;;;;;2.85;100.00;99177.84;2567378;28;20066;-84
2023/05/04 04:46:30;;;;;;;11.07;6.03;;;;;;;2.87;100.00;99176.19;2567140;28;20178;-84
2023/05/04 04:47:46;;;;;;;14.35;6.88;;;;;;;2.84;100.00;99174.41;2567233;28;20110;-84
2023/05/04 04:49:01;;;;;;;14.05;6.40;;;;;;;2.81;100.00;99176.97;2567956;28;20066;-84
2023/05/04 04:50:18;;;;;;;9.43;6.55;;;;;;;2.92;100.00;99184.88;2566964;28;20081;-84
2023/05/04 04:51:34;;;;;;;10.55;6.47;;;;;;;3.05;100.00;99180.75;2567208;28;20050;-86
2023/05/04 04:52:50;;;;;;;10.82;6.70;;;;;;;3.11;100.00;99179.13;2566657;28;20077;-86
2023/05/04 04:54:05;;;;;;;11.75;6.80;;;;;;;3.17;100.00;99178.34;2566489;28;20141;-84
2023/05/04 04:55:22;;;;;;;13.77;6.90;;;;;;;3.06;100.00;99178.19;2566726;28;20054;-84
2023/05/04 04:56:43;;;;;;;10.95;6.65;;;;;;;3.01;100.00;99184.16;2556129;29;20130;-84
2023/05/04 04:57:59;;;;;;;12.85;6.97;;;;;;;3.10;100.00;99184.28;2560605;28;20063;-84
2023/05/04 04:59:15;;;;;;;11.52;6.95;;;;;;;3.14;100.00;99182.59;2566952;28;20395;-85
2023/05/04 05:00:30;;;;;;;18.35;7.03;;;;;;;3.22;100.00;99178.41;2566770;28;20399;-84
2023/05/04 05:01:47;;;;;;;13.13;6.82;;;;;;;3.48;100.00;99177.88;2567942;28;20050;-83
2023/05/04 05:03:03;;;;;;;15.45;7.10;;;;;;;3.78;100.00;99176.50;2567511;28;20051;-84
2023/05/04 05:04:19;;;;;;;10.77;6.43;;;;;;;3.85;100.00;99174.84;2566073;28;20093;-83
2023/05/04 05:05:34;;;;;;;11.73;6.32;;;;;;;3.84;100.00;99173.13;2566772;28;20054;-84
2023/05/04 05:06:50;;;;;;;11.15;6.57;;;;;;;3.86;100.00;99182.66;2567620;28;20506;-85
2023/05/04 05:08:05;;;;;;;10.88;6.78;;;;;;;3.35;100.00;99175.13;2567595;28;20141;-85
2023/05/04 05:09:21;;;;;;;13.05;6.95;;;;;;;3.51;100.00;99180.50;2567774;28;20417;-84
2023/05/04 05:10:37;;;;;;;11.38;6.55;;;;;;;3.56;100.00;99178.81;2567751;28;20059;-84
2023/05/04 05:11:52;;;;;;;11.23;6.80;;;;;;;3.60;100.00;99179.75;2567514;28;20055;-85
2023/05/04 05:13:08;;;;;;;10.43;6.57;;;;;;;3.71;100.00;99177.31;2567190;28;20184;-84
2023/05/04 05:14:23;;;;;;;11.07;6.63;;;;;;;3.68;100.00;99178.97;2567443;28;20059;-85
2023/05/04 05:15:39;;;;;;;12.55;6.68;;;;;;;3.77;100.00;99175.66;2567748;28;20055;-90
2023/05/04 05:16:55;;;;;;;13.38;7.32;;;;;;;3.46;100.00;99180.44;2566855;28;20054;-84
2023/05/04 05:18:10;;;;;;;11.40;7.10;;;;;;;3.77;100.00;99175.66;2567503;28;20436;-85
2023/05/04 05:19:26;;;;;;;12.43;7.22;;;;;;;3.88;100.00;99170.59;2567292;28;20425;-84
2023/05/04 05:20:42;;;;;;;10.38;6.60;;;;;;;4.02;100.00;99178.47;2567534;28;20134;-84
2023/05/04 05:21:57;;;;;;;10.57;6.35;;;;;;;4.06;100.00;99174.22;2567404;28;20061;-83
2023/05/04 05:23:13;;;;;;;16.15;7.03;;;;;;;4.19;100.00;99170.00;2567333;28;20061;-86
2023/05/04 05:24:29;;;;;;;12.27;7.00;;;;;;;4.15;100.00;99171.72;2567472;28;20409;-86
2023/05/04 05:25:44;;;;;;;17.48;7.82;;;;;;;4.16;100.00;99176.03;2567214;28;20117;-84
2023/05/04 05:26:59;;;;;;;11.40;6.90;;;;;;;3.99;100.00;99175.88;2568431;28;20051;-87
2023/05/04 05:28:16;;;;;;;10.60;6.28;;;;;;;4.29;100.00;99174.44;2569113;28;20133;-83
2023/05/04 05:29:31;;;;;;;11.23;6.65;;;;;;;4.38;100.00;99176.22;2569168;28;20565;-83
2023/05/04 05:30:48;;;;;;;10.13;6.43;;;;;;;4.35;100.00;99181.41;2569117;28;20063;-83
2023/05/04 05:32:04;;;;;;;14.65;6.97;;;;;;;4.59;100.00;99185.06;2569273;28;20494;-82
2023/05/04 05:33:19;;;;;;;12.98;6.90;;;;;;;4.24;100.00;99176.97;2569550;28;20077;-83
2023/05/04 05:34:37;;;;;;;10.57;6.40;;;;;;;4.25;100.00;99177.84;2569325;28;20471;-83
2023/05/04 05:35:53;;;;;;;12.60;7.15;;;;;;;4.50;100.00;99178.09;2569252;28;20562;-83
2023/05/04 05:37:09;;;;;;;12.18;6.57;;;;;;;4.43;100.00;99174.56;2569540;28;20058;-83
2023/05/04 05:38:25;;;;;;;12.45;7.32;;;;;;;4.45;100.00;99179.75;2569164;28;20055;-83
2023/05/04 05:39:41;;;;;;;11.18;6.60;;;;;;;4.59;100.00;99174.69;2569302;28;20094;-83
2023/05/04 05:40:56;;;;;;;9.50;6.20;;;;;;;4.61;100.00;99178.16;2569513;28;20121;-84
2023/05/04 05:42:12;;;;;;;13.82;6.40;;;;;;;4.72;100.00;99180.84;2569130;28;20169;-83
2023/05/04 05:43:27;;;;;;;11.55;6.30;;;;;;;4.93;100.00;99177.53;2569551;28;20133;-83
2023/05/04 05:44:43;;;;;;;7.72;5.55;;;;;;;4.83;100.00;99173.16;2569351;28;20062;-83
2023/05/04 05:45:58;;;;;;;12.80;6.47;;;;;;;4.78;100.00;99180.91;2569259;28;20062;-84
2023/05/04 05:47:14;;;;;;;12.98;5.97;;;;;;;4.85;100.00;99177.47;2569255;28;20079;-84
2023/05/04 05:48:30;;;;;;;10.30;6.25;;;;;;;4.76;100.00;99173.09;2569117;28;20058;-85
2023/05/04 05:49:45;;;;;;;11.60;7.20;;;;;;;4.97;100.00;99171.53;2568865;28;20050;-89
2023/05/04 05:51:01;;;;;;;10.75;6.85;;;;;;;5.09;100.00;99173.31;2558506;29;20574;-93
2023/05/04 05:52:17;;;;;;;12.27;6.35;;;;;;;5.06;100.00;99175.91;2564667;28;20058;-92
2023/05/04 05:53:32;;;;;;;11.48;5.95;;;;;;;5.20;100.00;99171.66;2569205;28;20055;-92
2023/05/04 05:54:48;;;;;;;9.40;6.20;;;;;;;5.28;100.00;99174.28;2579670;28;20051;-92
2023/05/04 05:56:04;;;;;;;11.65;6.55;;;;;;;5.15;100.00;99165.56;2564251;28;20400;-92
2023/05/04 05:57:19;;;;;;;16.95;6.95;;;;;;;5.35;100.00;99177.78;2559157;28;20423;-92